Time;durP1;ratioP1;P1;durP2;ratioP2;P2;SDS_P1;SDS_P2;PMS_P1;PMS_P2;Temp;Humidity;BMP_temperature;BMP_pressure;BME280_temperature;BME280_humidity;BME280_pressure;Samples;Min_cycle;Max_cycle;Signal;HPM_P1;HPM_P2
2022/03/29 00:01:32;;;;;;;12.37;8.33;;;;;;;5.24;64.76;97438.44;6162314;28;20233;-81
2022/03/29 00:04:34;;;;;;;12.20;8.53;;;;;;;5.26;65.34;97443.59;6179335;28;20260;-81
2022/03/29 00:07:37;;;;;;;14.67;8.50;;;;;;;5.21;64.53;97436.03;6162977;28;20236;-81
2022/03/29 00:10:39;;;;;;;14.40;9.10;;;;;;;5.18;64.61;97438.84;6177940;28;20229;-80
2022/03/29 00:13:40;;;;;;;15.30;8.93;;;;;;;5.08;64.75;97437.75;6162901;28;20229;-82
2022/03/29 00:16:43;;;;;;;11.27;7.93;;;;;;;4.98;65.87;97423.56;6179498;28;20229;-81
2022/03/29 00:19:45;;;;;;;13.53;8.87;;;;;;;4.97;65.64;97429.72;6177993;28;20276;-81
2022/03/29 00:22:47;;;;;;;14.13;8.27;;;;;;;4.91;65.17;97420.47;6179474;28;20233;-81
2022/03/29 00:25:49;;;;;;;14.50;8.77;;;;;;;4.90;65.53;97418.78;6161431;28;20232;-81
2022/03/29 00:28:52;;;;;;;16.00;9.30;;;;;;;4.85;65.78;97415.63;6177649;28;20235;-81
2022/03/29 00:31:54;;;;;;;13.70;8.13;;;;;;;4.76;65.91;97409.19;6178016;28;20236;-81
2022/03/29 00:34:57;;;;;;;13.17;8.73;;;;;;;4.70;65.64;97406.94;6161441;28;20232;-81
2022/03/29 00:38:00;;;;;;;17.23;9.90;;;;;;;4.60;66.48;97397.97;6164567;28;20694;-81
2022/03/29 00:41:03;;;;;;;11.80;8.77;;;;;;;4.55;66.58;97400.03;6183083;28;20225;-81
2022/03/29 00:44:06;;;;;;;13.77;9.37;;;;;;;4.56;66.67;97393.88;6182560;28;20236;-81
2022/03/29 00:47:08;;;;;;;14.03;8.63;;;;;;;4.51;66.73;97392.47;6181858;28;20244;-80
2022/03/29 00:50:10;;;;;;;17.00;9.77;;;;;;;4.42;66.32;97388.63;6166428;28;20798;-81
2022/03/29 00:53:12;;;;;;;11.93;8.27;;;;;;;4.37;66.58;97394.16;6184448;28;20235;-81
2022/03/29 00:56:19;;;;;;;13.90;8.47;;;;;;;4.41;66.52;97384.34;6183510;28;20229;-81
2022/03/29 00:59:21;;;;;;;13.33;8.17;;;;;;;4.38;66.48;97385.41;6182904;28;20233;-81
2022/03/29 01:02:23;;;;;;;12.63;8.50;;;;;;;4.36;67.05;97382.03;6183288;28;20224;-81
2022/03/29 01:05:26;;;;;;;12.33;8.57;;;;;;;4.32;67.17;97374.44;6182621;28;20228;-81
2022/03/29 01:08:28;;;;;;;15.27;9.50;;;;;;;4.25;66.91;97373.16;6183827;28;20233;-80
2022/03/29 01:11:31;;;;;;;12.07;8.23;;;;;;;4.16;67.47;97374.53;6185866;28;20708;-80
2022/03/29 01:14:34;;;;;;;12.13;8.73;;;;;;;4.11;67.73;97366.13;6184694;28;20704;-81
2022/03/29 01:17:38;;;;;;;13.87;9.43;;;;;;;4.10;68.15;97367.06;6183742;28;20259;-81
2022/03/29 01:20:43;;;;;;;13.53;8.03;;;;;;;4.06;67.97;97353.38;6183300;28;20315;-81
2022/03/29 01:23:46;;;;;;;13.90;9.20;;;;;;;4.14;67.40;97357.28;6183985;28;20233;-81
2022/03/29 01:26:49;;;;;;;12.93;8.43;;;;;;;4.15;67.15;97346.75;6182536;28;20223;-81
2022/03/29 01:29:57;;;;;;;15.17;9.20;;;;;;;4.13;67.51;97345.16;6177874;28;20283;-81
2022/03/29 01:33:01;;;;;;;14.40;9.50;;;;;;;4.07;68.40;97341.16;6173954;28;20233;-80
2022/03/29 01:36:04;;;;;;;13.70;8.77;;;;;;;4.02;68.52;97343.19;6181953;28;20238;-81
2022/03/29 01:39:06;;;;;;;13.63;8.83;;;;;;;3.91;68.74;97335.13;6181729;28;20228;-80
2022/03/29 01:42:08;;;;;;;13.67;9.50;;;;;;;3.84;68.34;97329.44;6181847;28;20238;-81
2022/03/29 01:45:10;;;;;;;14.67;8.43;;;;;;;3.82;68.63;97328.69;6164957;28;21141;-81
2022/03/29 01:48:12;;;;;;;14.03;9.07;;;;;;;3.77;68.47;97335.97;6180901;28;20231;-81
2022/03/29 01:51:14;;;;;;;13.40;8.67;;;;;;;3.69;69.32;97333.78;6181061;28;20228;-81
2022/03/29 01:54:16;;;;;;;12.80;8.90;;;;;;;3.64;69.33;97321.94;6180762;28;20642;-81
2022/03/29 01:57:18;;;;;;;15.73;8.90;;;;;;;3.59;69.10;97324.81;6178982;28;21980;-81
2022/03/29 02:00:34;;;;;;;22.23;9.93;;;;;;;3.52;69.93;97318.28;6173300;28;20218;-81
2022/03/29 02:03:36;;;;;;;13.33;8.07;;;;;;;3.47;69.47;97322.94;6141523;28;20259;-80
2022/03/29 02:06:39;;;;;;;17.17;10.17;;;;;;;3.40;69.45;97318.97;6164360;28;20605;-81
2022/03/29 02:09:41;;;;;;;13.90;8.57;;;;;;;3.34;69.67;97312.34;6187695;28;20237;-80
2022/03/29 02:12:44;;;;;;;14.17;9.00;;;;;;;3.33;69.95;97305.47;6189153;28;20261;-81
2022/03/29 02:15:46;;;;;;;12.40;8.63;;;;;;;3.28;69.97;97298.84;6180464;28;20251;-81
2022/03/29 02:18:48;;;;;;;13.90;9.27;;;;;;;3.25;69.71;97302.47;6182626;28;20231;-81
2022/03/29 02:21:50;;;;;;;12.50;8.90;;;;;;;3.31;70.75;97301.25;6181799;28;20254;-81
2022/03/29 02:24:52;;;;;;;15.50;8.97;;;;;;;3.31;70.45;97290.81;6181335;28;20243;-81
2022/03/29 02:27:55;;;;;;;15.77;9.37;;;;;;;3.27;70.62;97304.97;6181774;28;20245;-81
2022/03/29 02:30:57;;;;;;;15.23;9.63;;;;;;;3.22;70.91;97293.97;6163112;28;20237;-81
2022/03/29 02:33:59;;;;;;;18.63;9.50;;;;;;;3.16;70.82;97294.31;6164634;28;20238;-81
2022/03/29 02:37:01;;;;;;;15.07;8.70;;;;;;;3.10;70.75;97289.44;6181554;28;20249;-81
2022/03/29 02:40:03;;;;;;;14.80;9.20;;;;;;;3.06;71.11;97282.72;6155860;28;20702;-81
2022/03/29 02:43:05;;;;;;;15.73;9.60;;;;;;;3.03;71.08;97293.31;6165584;28;20241;-81
2022/03/29 02:46:07;;;;;;;15.60;10.00;;;;;;;2.99;71.40;97286.63;6180509;28;20241;-81
2022/03/29 02:49:10;;;;;;;14.37;9.70;;;;;;;2.95;71.53;97284.19;6179191;28;20229;-81
2022/03/29 02:52:13;;;;;;;16.87;10.07;;;;;;;2.96;72.01;97285.03;6180184;28;20605;-81
2022/03/29 02:55:16;;;;;;;17.27;8.80;;;;;;;2.93;72.04;97275.59;6179963;28;20588;-81
2022/03/29 02:58:19;;;;;;;18.20;10.63;;;;;;;2.89;72.01;97271.50;6180508;28;20233;-81
2022/03/29 03:01:21;;;;;;;13.50;9.50;;;;;;;2.90;71.83;97274.91;6181089;28;20234;-81
2022/03/29 03:04:23;;;;;;;14.77;9.93;;;;;;;2.86;72.40;97282.09;6163882;28;20240;-81
2022/03/29 03:07:26;;;;;;;13.77;9.60;;;;;;;2.86;72.26;97276.88;6179688;28;20244;-80
2022/03/29 03:10:28;;;;;;;16.57;10.37;;;;;;;2.83;72.55;97274.44;6182725;28;20242;-81
2022/03/29 03:13:36;;;;;;;17.60;9.90;;;;;;;2.83;72.81;97273.59;6181246;28;20226;-81
2022/03/29 03:16:38;;;;;;;15.37;9.50;;;;;;;2.84;72.75;97268.31;6180284;28;20237;-81
2022/03/29 03:20:01;;;;;;;15.00;9.97;;;;;;;2.83;72.93;97271.00;6180223;28;20232;-80
2022/03/29 03:23:03;;;;;;;16.10;10.30;;;;;;;2.79;72.84;97275.56;6180785;28;20245;-81
2022/03/29 03:26:05;;;;;;;13.10;9.43;;;;;;;2.79;73.17;97262.53;6180497;28;20226;-80
2022/03/29 03:29:07;;;;;;;18.87;10.23;;;;;;;2.75;72.98;97258.41;6162168;28;20233;-81
2022/03/29 03:32:11;;;;;;;15.40;9.80;;;;;;;2.76;73.19;97256.63;6178896;28;20229;-80
2022/03/29 03:35:13;;;;;;;17.13;10.57;;;;;;;2.76;73.60;97261.84;6178408;28;20324;-80
2022/03/29 03:38:15;;;;;;;16.27;9.13;;;;;;;2.73;73.17;97259.41;6162657;28;20229;-81
2022/03/29 03:41:17;;;;;;;15.47;9.80;;;;;;;2.72;73.15;97252.50;6180231;28;20235;-80
2022/03/29 03:44:19;;;;;;;15.03;9.50;;;;;;;2.71;73.45;97251.66;6178385;28;20237;-81
2022/03/29 03:47:21;;;;;;;18.30;10.23;;;;;;;2.71;73.43;97256.03;6178648;28;20235;-81
2022/03/29 03:50:23;;;;;;;15.43;8.87;;;;;;;2.71;73.35;97251.66;6179843;28;20234;-81
2022/03/29 03:53:25;;;;;;;16.07;10.53;;;;;;;2.71;73.61;97238.63;6178248;28;20241;-81
2022/03/29 03:56:27;;;;;;;14.60;9.00;;;;;;;2.72;73.25;97242.09;6179852;28;20240;-81
2022/03/29 03:59:29;;;;;;;18.03;10.97;;;;;;;2.73;73.42;97239.41;6180212;28;20230;-81
2022/03/29 04:02:31;;;;;;;18.53;11.77;;;;;;;2.73;73.65;97242.00;6178754;28;20241;-81
2022/03/29 04:05:34;;;;;;;14.57;9.57;;;;;;;2.79;73.76;97233.03;6179973;28;20323;-81
2022/03/29 04:08:36;;;;;;;15.93;10.63;;;;;;;2.81;73.52;97237.19;6177767;28;20226;-81
2022/03/29 04:11:38;;;;;;;14.07;9.43;;;;;;;2.87;73.75;97234.25;6181919;28;20311;-81
2022/03/29 04:14:40;;;;;;;18.87;10.47;;;;;;;2.91;74.17;97229.69;6178527;28;20231;-81
2022/03/29 04:17:42;;;;;;;17.97;10.40;;;;;;;3.03;74.00;97229.00;6177989;28;20578;-81
2022/03/29 04:20:44;;;;;;;17.13;11.00;;;;;;;3.06;73.55;97233.22;6178375;28;20625;-81
2022/03/29 04:23:46;;;;;;;18.30;10.33;;;;;;;3.07;73.76;97227.06;6178830;28;20239;-80
2022/03/29 04:26:48;;;;;;;18.63;11.37;;;;;;;3.14;73.97;97229.22;6177833;28;20250;-81
2022/03/29 04:29:50;;;;;;;16.97;10.03;;;;;;;3.14;73.60;97226.63;6178242;28;20709;-80
2022/03/29 04:32:53;;;;;;;15.10;10.40;;;;;;;3.20;73.74;97228.00;6193673;28;20229;-81
2022/03/29 04:35:56;;;;;;;17.73;10.53;;;;;;;3.22;73.37;97213.97;6162218;28;20308;-80
2022/03/29 04:38:58;;;;;;;16.93;10.30;;;;;;;3.30;73.70;97205.69;6177564;28;20617;-81
2022/03/29 04:42:00;;;;;;;15.97;10.83;;;;;;;3.40;72.96;97206.81;6177658;28;20237;-81
2022/03/29 04:45:09;;;;;;;15.10;10.03;;;;;;;3.42;73.26;97209.34;6139689;28;20670;-81
2022/03/29 04:48:12;;;;;;;17.37;9.73;;;;;;;3.48;72.95;97209.00;6193649;28;20232;-80
2022/03/29 04:51:13;;;;;;;16.87;9.87;;;;;;;3.50;72.72;97192.31;6178115;28;20239;-81
2022/03/29 04:54:16;;;;;;;15.80;9.67;;;;;;;3.57;72.87;97200.63;6177676;28;20233;-81
2022/03/29 04:57:18;;;;;;;17.07;10.23;;;;;;;3.64;73.08;97194.09;6178791;28;20226;-81
2022/03/29 05:00:21;;;;;;;14.67;9.57;;;;;;;3.69;72.77;97186.84;6161407;28;20249;-81
2022/03/29 05:03:23;;;;;;;13.70;9.20;;;;;;;3.79;72.40;97192.34;6177366;28;20235;-81
2022/03/29 05:06:25;;;;;;;13.80;9.23;;;;;;;3.86;72.08;97185.81;6179432;28;20227;-81
2022/03/29 05:09:27;;;;;;;13.90;8.87;;;;;;;3.93;72.08;97182.72;6182303;28;20228;-80
2022/03/29 05:12:29;;;;;;;13.83;9.50;;;;;;;4.11;71.42;97187.72;6183655;28;20311;-81
2022/03/29 05:15:31;;;;;;;16.63;8.80;;;;;;;4.25;70.97;97185.94;6176850;28;20607;-81
2022/03/29 05:18:33;;;;;;;12.90;8.43;;;;;;;4.40;70.89;97178.91;6152434;28;20229;-81
2022/03/29 05:21:34;;;;;;;14.33;9.03;;;;;;;4.52;70.88;97183.34;6160898;28;20235;-81
2022/03/29 05:24:36;;;;;;;15.60;8.93;;;;;;;4.71;69.84;97178.59;6162461;28;20323;-81
2022/03/29 05:27:39;;;;;;;17.30;9.57;;;;;;;4.90;69.76;97174.78;6165177;28;20647;-80
2022/03/29 05:30:41;;;;;;;13.80;8.73;;;;;;;5.08;69.10;97171.81;6181106;28;20295;-81
2022/03/29 05:33:44;;;;;;;14.57;8.67;;;;;;;5.28;69.32;97174.88;6183612;28;20241;-81
2022/03/29 05:36:46;;;;;;;17.33;9.93;;;;;;;5.44;69.41;97158.03;6185285;28;20304;-81
2022/03/29 05:39:48;;;;;;;12.73;8.57;;;;;;;5.63;68.14;97168.06;6185119;28;20728;-81
2022/03/29 05:42:52;;;;;;;15.07;9.20;;;;;;;5.86;67.99;97164.72;6181021;28;20226;-81
2022/03/29 05:49:15;;;;;;;11.67;8.57;;;;;;;6.22;67.56;97163.94;6180663;28;20240;-81
2022/03/29 05:52:18;;;;;;;12.23;8.43;;;;;;;6.39;67.66;97173.19;6159135;28;20333;-82
2022/03/29 05:55:20;;;;;;;13.37;8.60;;;;;;;6.54;67.40;97169.50;6181223;28;20721;-82
2022/03/29 05:58:23;;;;;;;10.97;7.93;;;;;;;6.73;67.09;97166.38;6181692;28;20241;-81
2022/03/29 06:01:25;;;;;;;11.67;8.27;;;;;;;6.93;66.39;97164.91;6180355;28;20237;-81
2022/03/29 06:04:27;;;;;;;10.83;7.40;;;;;;;7.12;66.41;97165.22;6164819;28;20611;-82
2022/03/29 06:07:29;;;;;;;14.50;7.47;;;;;;;7.34;65.33;97170.53;6181903;28;20239;-81
2022/03/29 06:10:31;;;;;;;8.57;6.83;;;;;;;7.61;64.10;97169.38;6192111;28;20220;-81
2022/03/29 06:13:34;;;;;;;11.37;7.80;;;;;;;7.81;63.70;97160.78;6194735;28;20234;-81
2022/03/29 06:16:36;;;;;;;10.93;7.23;;;;;;;8.03;63.59;97168.69;6180062;28;20276;-82
2022/03/29 06:19:38;;;;;;;10.47;7.63;;;;;;;8.26;62.82;97159.00;6161030;28;20224;-81
2022/03/29 06:22:44;;;;;;;10.03;7.70;;;;;;;8.53;61.70;97161.25;6171994;28;20238;-81
2022/03/29 06:25:46;;;;;;;12.63;6.90;;;;;;;8.79;61.44;97154.69;6132456;28;20259;-81
2022/03/29 06:28:48;;;;;;;11.83;6.87;;;;;;;9.02;61.36;97154.63;6167790;28;20232;-81
2022/03/29 06:31:51;;;;;;;10.87;7.00;;;;;;;9.24;61.38;97157.16;6163079;28;20335;-82
2022/03/29 06:34:53;;;;;;;10.17;7.03;;;;;;;9.44;60.62;97155.47;6163316;28;20225;-81
2022/03/29 06:37:58;;;;;;;11.03;7.40;;;;;;;9.58;59.55;97158.59;6163770;28;20238;-81
2022/03/29 06:41:00;;;;;;;12.30;8.13;;;;;;;9.76;58.69;97156.22;6163288;28;20243;-81
2022/03/29 06:44:02;;;;;;;9.50;6.17;;;;;;;10.00;57.66;97156.75;6172734;28;20327;-81
2022/03/29 06:47:06;;;;;;;9.47;6.70;;;;;;;10.16;57.27;97163.34;6179587;28;20224;-82
2022/03/29 06:50:10;;;;;;;10.40;6.63;;;;;;;10.31;55.97;97167.28;6179653;28;21130;-81
2022/03/29 06:53:12;;;;;;;8.50;6.80;;;;;;;10.45;56.03;97158.19;6179875;28;20613;-81
2022/03/29 06:56:15;;;;;;;12.60;7.47;;;;;;;10.70;54.65;97170.88;6180354;28;20237;-82
2022/03/29 06:59:17;;;;;;;14.30;9.67;;;;;;;10.95;51.21;97165.06;6179852;28;20221;-82
2022/03/29 07:02:19;;;;;;;18.80;10.93;;;;;;;11.52;47.01;97155.44;6180803;28;20237;-82
2022/03/29 07:05:21;;;;;;;17.13;10.20;;;;;;;11.91;45.28;97155.38;6180773;28;20264;-82
2022/03/29 07:08:23;;;;;;;18.10;10.00;;;;;;;12.06;46.55;97151.28;6178909;28;20231;-82
2022/03/29 07:11:26;;;;;;;14.73;9.50;;;;;;;12.20;45.66;97156.94;6197708;28;20225;-81
2022/03/29 07:14:28;;;;;;;18.77;9.80;;;;;;;12.38;44.43;97149.03;6180433;28;20230;-81
2022/03/29 07:17:30;;;;;;;13.40;9.50;;;;;;;12.67;42.66;97151.53;6162388;28;20229;-81
2022/03/29 07:20:32;;;;;;;16.33;10.13;;;;;;;12.97;41.24;97137.13;6162375;28;20577;-82
2022/03/29 07:23:34;;;;;;;15.13;9.13;;;;;;;13.20;40.87;97148.09;6155378;28;20236;-81
2022/03/29 07:26:37;;;;;;;12.60;8.67;;;;;;;13.37;42.06;97149.91;6177087;28;20224;-82
2022/03/29 07:29:39;;;;;;;15.80;10.43;;;;;;;13.54;40.56;97151.69;6179232;28;20700;-82
2022/03/29 07:32:47;;;;;;;14.23;9.77;;;;;;;13.80;38.45;97143.75;6176922;28;20477;-82
2022/03/29 07:35:49;;;;;;;18.83;10.43;;;;;;;14.13;37.68;97142.13;6181085;28;20445;-82
2022/03/29 07:38:51;;;;;;;13.90;10.63;;;;;;;14.43;36.75;97146.09;6179001;28;20231;-82
2022/03/29 07:41:55;;;;;;;17.17;10.50;;;;;;;14.71;38.33;97147.50;6182309;28;20239;-82
2022/03/29 07:44:57;;;;;;;19.30;10.77;;;;;;;14.94;36.12;97144.25;6169844;28;20252;-82
2022/03/29 07:47:59;;;;;;;15.40;10.40;;;;;;;15.26;34.79;97141.63;6178554;28;20949;-82
2022/03/29 07:51:21;;;;;;;13.00;9.50;;;;;;;15.51;34.51;97145.94;6179018;28;20232;-84
2022/03/29 07:54:23;;;;;;;17.97;11.17;;;;;;;15.64;33.14;97147.31;6178418;28;20333;-82
2022/03/29 07:57:25;;;;;;;19.53;9.97;;;;;;;15.86;33.43;97136.81;6178835;28;20233;-82
2022/03/29 08:00:50;;;;;;;13.47;9.93;;;;;;;16.15;33.22;97151.38;6177540;28;20600;-82
2022/03/29 08:03:53;;;;;;;16.93;10.60;;;;;;;16.25;31.78;97154.66;6178143;28;20241;-82
2022/03/29 08:06:55;;;;;;;15.97;10.50;;;;;;;16.40;31.74;97139.63;6176613;28;20239;-82
2022/03/29 08:09:58;;;;;;;15.83;10.80;;;;;;;16.50;31.41;97136.75;6162035;28;20278;-83
2022/03/29 08:13:07;;;;;;;14.70;9.97;;;;;;;16.64;31.70;97133.41;6178024;28;20241;-83
2022/03/29 08:16:09;;;;;;;13.13;9.40;;;;;;;17.04;31.64;97139.50;6178338;28;20375;-82
2022/03/29 08:19:11;;;;;;;12.03;9.37;;;;;;;17.53;30.98;97135.44;6178674;28;20324;-82
2022/03/29 08:22:13;;;;;;;12.87;9.50;;;;;;;17.92;31.00;97137.94;6179210;28;20229;-83
2022/03/29 08:25:17;;;;;;;16.63;10.50;;;;;;;18.09;30.05;97130.59;6161530;28;20237;-83
2022/03/29 08:28:21;;;;;;;14.10;9.50;;;;;;;18.11;29.20;97151.78;6177221;28;20742;-83
2022/03/29 08:31:23;;;;;;;14.17;9.67;;;;;;;18.25;29.00;97130.44;6177437;28;20233;-83
2022/03/29 08:34:25;;;;;;;23.00;11.50;;;;;;;18.24;28.41;97120.75;6178824;28;20236;-83
2022/03/29 08:37:28;;;;;;;14.13;10.07;;;;;;;18.16;28.55;97130.69;6177365;28;20254;-83
2022/03/29 08:40:30;;;;;;;13.07;10.07;;;;;;;18.59;28.66;97129.84;6168900;28;20229;-83
2022/03/29 08:43:32;;;;;;;13.63;9.93;;;;;;;19.01;27.80;97125.63;6175689;28;20240;-83
2022/03/29 08:46:38;;;;;;;16.13;10.53;;;;;;;19.15;27.34;97116.72;6179008;28;20272;-83
2022/03/29 08:49:41;;;;;;;14.53;10.30;;;;;;;19.38;27.51;97128.03;6161923;28;20602;-83
2022/03/29 08:52:44;;;;;;;14.37;9.47;;;;;;;19.67;27.47;97118.22;6178918;28;20232;-83
2022/03/29 08:55:48;;;;;;;14.73;10.67;;;;;;;19.78;26.29;97106.97;6179960;28;21030;-83
2022/03/29 08:58:50;;;;;;;11.90;8.70;;;;;;;19.41;26.47;97113.47;6180154;28;20240;-83
2022/03/29 09:01:55;;;;;;;14.30;9.83;;;;;;;19.58;26.66;97122.91;6183425;28;20312;-83
2022/03/29 09:05:13;;;;;;;13.63;10.00;;;;;;;19.56;27.23;97108.91;6182418;28;20255;-83
2022/03/29 09:08:16;;;;;;;14.03;9.47;;;;;;;19.90;27.42;97111.63;6182959;28;20221;-83
2022/03/29 09:11:19;;;;;;;12.90;9.47;;;;;;;20.32;25.89;97112.50;6182591;28;20712;-83
2022/03/29 09:14:23;;;;;;;12.10;9.50;;;;;;;20.39;26.65;97097.28;6181843;28;20712;-83
2022/03/29 09:17:25;;;;;;;12.70;9.50;;;;;;;20.85;26.50;97089.44;6165609;28;20315;-84
2022/03/29 09:20:27;;;;;;;13.57;9.57;;;;;;;21.03;25.51;97096.09;6181734;28;20225;-83
2022/03/29 09:23:29;;;;;;;12.33;8.30;;;;;;;21.28;25.32;97098.00;6181919;28;20638;-83
2022/03/29 09:26:31;;;;;;;13.80;8.87;;;;;;;21.70;24.89;97090.59;6181256;28;20298;-83
2022/03/29 09:29:33;;;;;;;13.47;9.90;;;;;;;21.65;24.46;97083.19;6182901;28;20221;-83
2022/03/29 09:32:53;;;;;;;12.50;8.20;;;;;;;21.59;23.65;97088.53;6199719;28;20224;-83
2022/03/29 09:36:04;;;;;;;12.90;7.57;;;;;;;21.23;25.09;97089.75;6178862;28;20716;-83
2022/03/29 09:39:06;;;;;;;8.27;6.87;;;;;;;21.36;24.85;97087.06;6157539;28;20591;-83
2022/03/29 09:42:14;;;;;;;9.00;7.00;;;;;;;21.50;24.35;97090.59;6180567;28;20663;-83
2022/03/29 09:45:38;;;;;;;12.03;7.27;;;;;;;22.00;24.91;97082.94;6164720;28;20233;-84
2022/03/29 09:48:40;;;;;;;9.63;7.63;;;;;;;22.18;22.61;97075.03;6169555;28;20230;-83
2022/03/29 09:51:42;;;;;;;10.63;7.80;;;;;;;22.06;22.92;97079.44;6174000;28;20225;-83
2022/03/29 09:55:06;;;;;;;11.10;8.10;;;;;;;22.17;23.17;97075.25;6166272;28;20232;-84
2022/03/29 09:58:14;;;;;;;8.90;7.60;;;;;;;22.43;23.52;97051.81;6164439;28;20244;-83
2022/03/29 10:01:24;;;;;;;11.20;7.73;;;;;;;22.66;21.72;97067.41;6180513;28;20244;-83
2022/03/29 10:04:33;;;;;;;10.50;8.13;;;;;;;22.09;21.67;97052.94;6180446;28;20225;-83
2022/03/29 10:07:47;;;;;;;14.80;8.40;;;;;;;21.70;22.56;97047.63;6164890;28;20233;-83
2022/03/29 10:10:50;;;;;;;12.30;8.57;;;;;;;22.04;22.63;97058.13;6164367;28;20223;-83
2022/03/29 11:13:44;;;;;;;11.13;8.43;;;;;;;22.63;20.96;96972.88;3479467;28;23275;-82
2022/03/29 11:16:47;;;;;;;13.20;9.63;;;;;;;23.06;20.92;96965.75;6153575;28;20229;-81
2022/03/29 11:19:50;;;;;;;11.80;9.27;;;;;;;23.68;20.47;96961.28;6139337;28;20229;-81
2022/03/29 11:22:52;;;;;;;12.70;9.03;;;;;;;23.85;19.91;96959.69;6155246;28;20701;-82
2022/03/29 11:25:55;;;;;;;11.90;8.73;;;;;;;23.90;20.10;96959.81;6155953;28;20729;-82
2022/03/29 11:28:59;;;;;;;11.90;9.37;;;;;;;23.92;20.16;96946.94;6158045;28;20245;-82
2022/03/29 11:32:03;;;;;;;10.63;7.67;;;;;;;23.96;20.23;96941.91;6154768;28;20324;-82
2022/03/29 11:35:07;;;;;;;10.20;8.00;;;;;;;24.44;20.26;96936.56;6156081;28;20293;-82
2022/03/29 11:38:12;;;;;;;10.53;8.20;;;;;;;24.61;19.99;96934.84;6155548;28;20425;-82
2022/03/29 11:41:29;;;;;;;11.80;8.57;;;;;;;24.83;19.07;96947.81;6154429;28;20720;-81
2022/03/29 11:44:31;;;;;;;10.88;7.95;;;;;;;24.41;19.53;96922.69;6138727;28;20229;-81
2022/03/29 11:47:33;;;;;;;11.15;8.15;;;;;;;24.49;19.75;96916.97;6154324;28;20233;-82
2022/03/29 11:50:44;;;;;;;11.20;8.73;;;;;;;24.20;19.09;96907.81;6138343;28;20226;-81
2022/03/29 11:53:57;;;;;;;11.07;8.53;;;;;;;24.20;19.79;96908.63;6138824;28;20237;-82
2022/03/29 11:56:58;;;;;;;14.27;10.13;;;;;;;24.12;18.59;96898.16;6156464;28;20237;-82
2022/03/29 12:00:00;;;;;;;14.30;9.40;;;;;;;23.74;19.49;96900.31;6137590;28;20242;-82
2022/03/29 12:03:02;;;;;;;9.98;8.32;;;;;;;23.80;19.95;96891.31;6137972;28;20625;-82
2022/03/29 12:06:13;;;;;;;10.37;8.53;;;;;;;24.14;19.49;96889.84;6154943;28;20328;-82
2022/03/29 12:09:23;;;;;;;12.10;9.20;;;;;;;24.46;19.52;96885.06;6154288;28;20253;-82
2022/03/29 12:12:25;;;;;;;10.03;8.27;;;;;;;24.51;19.84;96866.31;6153532;28;20233;-82
2022/03/29 12:15:27;;;;;;;13.30;9.30;;;;;;;24.55;18.81;96870.22;6106330;28;20324;-82
2022/03/29 12:18:41;;;;;;;13.63;9.53;;;;;;;24.51;19.09;96872.53;6161450;28;20248;-82
2022/03/29 12:21:48;;;;;;;12.73;9.63;;;;;;;24.35;19.34;96877.78;6161333;28;20228;-82
2022/03/29 12:24:58;;;;;;;11.83;9.20;;;;;;;24.52;20.28;96862.56;6162207;28;20263;-82
2022/03/29 12:28:00;;;;;;;12.75;9.57;;;;;;;25.07;19.00;96857.72;6177492;28;20249;-81
2022/03/29 12:31:03;;;;;;;12.68;10.05;;;;;;;25.11;18.33;96845.41;6161010;28;20762;-82
2022/03/29 12:34:06;;;;;;;11.45;8.80;;;;;;;24.86;19.05;96851.00;6179532;28;20245;-81
2022/03/29 12:37:15;;;;;;;12.55;9.55;;;;;;;24.58;19.84;96842.75;6166167;28;20251;-81
2022/03/29 12:40:17;;;;;;;15.25;10.60;;;;;;;24.79;19.22;96855.69;6166134;28;20597;-82
2022/03/29 12:43:25;;;;;;;14.07;10.50;;;;;;;23.98;19.50;96847.34;6161146;28;20284;-82
2022/03/29 12:46:30;;;;;;;13.65;9.50;;;;;;;24.28;19.54;96830.13;6183381;28;20555;-82
2022/03/29 12:49:34;;;;;;;13.80;9.98;;;;;;;24.18;18.78;96826.31;6182734;28;20572;-82
2022/03/29 12:52:40;;;;;;;12.23;10.03;;;;;;;25.02;18.72;96821.69;6183751;28;20235;-82
2022/03/29 12:55:56;;;;;;;13.98;9.15;;;;;;;25.75;18.07;96803.03;6170994;28;20235;-81
2022/03/29 12:58:59;;;;;;;13.82;10.48;;;;;;;24.92;18.18;96814.19;6159807;28;20264;-82
2022/03/29 13:02:21;;;;;;;13.50;10.75;;;;;;;24.84;18.64;96815.34;6180081;28;20233;-82
2022/03/29 13:05:33;;;;;;;9.90;8.87;;;;;;;24.87;18.50;96804.03;6181687;28;20577;-82
2022/03/29 13:08:36;;;;;;;13.85;10.48;;;;;;;25.36;17.85;96793.81;6181676;28;20650;-81
2022/03/29 13:11:38;;;;;;;14.90;10.68;;;;;;;25.36;18.62;96791.94;6188204;28;20730;-82
2022/03/29 13:14:42;;;;;;;11.52;9.15;;;;;;;25.52;18.49;96779.56;6170473;28;20317;-82
2022/03/29 13:17:44;;;;;;;14.10;9.68;;;;;;;25.32;17.85;96784.56;6181337;28;20258;-82
2022/03/29 13:20:47;;;;;;;11.63;9.95;;;;;;;24.87;18.27;96782.44;6180598;28;20703;-82
2022/03/29 13:23:55;;;;;;;12.85;9.38;;;;;;;25.15;18.27;96778.25;6183534;28;20295;-82
2022/03/29 13:26:57;;;;;;;19.35;10.10;;;;;;;25.20;17.51;96773.78;6182341;28;20235;-81
2022/03/29 13:29:59;;;;;;;12.63;9.32;;;;;;;25.27;17.83;96776.34;6165044;28;20233;-82
2022/03/29 13:33:01;;;;;;;13.73;9.30;;;;;;;25.91;17.64;96748.19;6157833;28;20244;-82
2022/03/29 13:36:09;;;;;;;14.40;9.95;;;;;;;26.42;17.23;96752.63;6181887;28;20232;-82
2022/03/29 13:39:13;;;;;;;10.43;9.18;;;;;;;26.01;16.84;96748.38;6183238;28;20248;-82
2022/03/29 13:42:35;;;;;;;11.98;9.35;;;;;;;25.75;17.06;96758.97;6167696;28;20226;-82
2022/03/29 13:45:37;;;;;;;11.30;9.25;;;;;;;25.23;17.34;96732.78;6181585;28;20248;-82
2022/03/29 13:48:40;;;;;;;10.32;8.60;;;;;;;25.63;17.66;96742.78;6180204;28;20574;-82
2022/03/29 13:51:42;;;;;;;11.85;8.85;;;;;;;25.47;17.27;96724.59;6166270;28;20237;-81
2022/03/29 13:54:44;;;;;;;12.43;9.57;;;;;;;26.41;16.37;96725.81;6183075;28;20221;-82
2022/03/29 13:57:46;;;;;;;12.38;9.85;;;;;;;26.30;16.19;96711.28;6181598;28;20233;-82
2022/03/29 14:00:48;;;;;;;12.68;10.15;;;;;;;26.22;16.19;96730.59;6157910;28;20241;-82
2022/03/29 14:03:51;;;;;;;12.17;8.97;;;;;;;25.86;16.17;96710.22;6170060;28;20246;-82
2022/03/29 14:06:53;;;;;;;13.40;10.20;;;;;;;25.80;16.57;96705.81;6177363;28;20704;-81
2022/03/29 14:09:55;;;;;;;14.63;10.07;;;;;;;25.70;16.01;96706.44;6189106;28;20717;-81
2022/03/29 14:12:59;;;;;;;13.17;10.60;;;;;;;25.43;16.40;96707.25;6210361;28;20241;-81
2022/03/29 14:16:02;;;;;;;12.23;9.37;;;;;;;25.30;16.72;96694.81;6156579;28;20662;-81
2022/03/29 14:19:05;;;;;;;11.40;9.67;;;;;;;24.83;17.17;96696.81;6166001;28;20229;-81
2022/03/29 14:22:07;;;;;;;12.27;10.50;;;;;;;23.96;18.30;96693.13;6164000;28;20233;-81
2022/03/29 14:25:10;;;;;;;12.57;9.63;;;;;;;23.74;18.63;96680.19;6164103;28;20238;-81
2022/03/29 14:28:13;;;;;;;9.80;8.80;;;;;;;23.80;18.20;96679.25;6180074;28;20243;-81
2022/03/29 14:31:15;;;;;;;10.20;8.37;;;;;;;23.60;18.48;96672.50;6181532;28;20245;-81
2022/03/29 14:34:17;;;;;;;12.50;9.07;;;;;;;23.64;18.96;96663.75;6181287;28;20662;-81
2022/03/29 14:37:22;;;;;;;11.60;8.97;;;;;;;23.70;18.97;96662.00;6180006;28;20229;-81
2022/03/29 14:40:24;;;;;;;12.37;8.53;;;;;;;23.71;19.91;96666.34;6164047;28;20228;-81
2022/03/29 14:43:26;;;;;;;10.83;7.93;;;;;;;23.88;19.14;96657.34;6179731;28;20317;-81
2022/03/29 14:46:28;;;;;;;11.90;9.27;;;;;;;23.41;18.69;96659.06;6179187;28;20769;-82
2022/03/29 14:49:30;;;;;;;10.90;8.33;;;;;;;22.96;18.97;96663.22;6179205;28;20721;-81
2022/03/29 14:52:33;;;;;;;12.53;8.90;;;;;;;22.85;19.60;96650.50;6181418;28;20300;-81
2022/03/29 14:55:36;;;;;;;9.53;8.53;;;;;;;22.48;19.67;96653.16;6178697;28;20229;-81
2022/03/29 14:58:38;;;;;;;11.80;9.27;;;;;;;22.51;19.12;96650.03;6180651;28;20724;-81
2022/03/29 15:01:40;;;;;;;11.43;8.50;;;;;;;22.57;18.98;96646.44;6179235;28;20257;-81
2022/03/29 15:04:42;;;;;;;8.47;7.30;;;;;;;22.78;18.91;96637.13;6163438;28;20284;-81
2022/03/29 15:07:46;;;;;;;14.03;8.77;;;;;;;22.52;18.99;96638.22;6178930;28;20233;-81
2022/03/29 15:10:48;;;;;;;11.53;9.23;;;;;;;22.14;19.17;96632.22;6172361;28;20569;-81
2022/03/29 15:13:50;;;;;;;9.20;7.53;;;;;;;22.08;19.53;96626.66;6179464;28;20261;-81
2022/03/29 15:16:52;;;;;;;11.40;9.10;;;;;;;22.14;19.63;96619.59;6177953;28;20237;-81
2022/03/29 15:19:54;;;;;;;12.80;9.87;;;;;;;21.87;19.51;96623.50;6179627;28;20328;-81